sensor_id;sensor_type;location;lat;lon;timestamp;temperature;humidity
21169;DHT22;10742;51.816;8.662;2022-12-07T00:01:21;8.20;97.50
21169;DHT22;10742;51.816;8.662;2022-12-07T00:04:44;8.20;97.60
21169;DHT22;10742;51.816;8.662;2022-12-07T00:08:06;8.30;97.60
21169;DHT22;10742;51.816;8.662;2022-12-07T00:11:28;8.30;97.60
21169;DHT22;10742;51.816;8.662;2022-12-07T00:14:49;8.30;97.50
21169;DHT22;10742;51.816;8.662;2022-12-07T00:18:11;8.30;97.60
21169;DHT22;10742;51.816;8.662;2022-12-07T00:21:35;8.30;97.60
21169;DHT22;10742;51.816;8.662;2022-12-07T00:24:57;8.30;97.70
21169;DHT22;10742;51.816;8.662;2022-12-07T00:28:18;8.30;97.60
21169;DHT22;10742;51.816;8.662;2022-12-07T00:31:39;8.30;97.60
21169;DHT22;10742;51.816;8.662;2022-12-07T00:35:02;8.30;97.70
21169;DHT22;10742;51.816;8.662;2022-12-07T00:38:24;8.30;97.70
21169;DHT22;10742;51.816;8.662;2022-12-07T00:41:48;8.30;97.70
21169;DHT22;10742;51.816;8.662;2022-12-07T00:45:09;8.40;97.70
21169;DHT22;10742;51.816;8.662;2022-12-07T00:48:31;8.40;97.70
21169;DHT22;10742;51.816;8.662;2022-12-07T00:51:52;8.40;97.70
21169;DHT22;10742;51.816;8.662;2022-12-07T00:55:14;8.40;97.70
21169;DHT22;10742;51.816;8.662;2022-12-07T00:58:36;8.40;97.70
21169;DHT22;10742;51.816;8.662;2022-12-07T01:01:57;8.50;97.80
21169;DHT22;10742;51.816;8.662;2022-12-07T01:05:19;8.50;97.80
21169;DHT22;10742;51.816;8.662;2022-12-07T01:08:41;8.50;97.80
21169;DHT22;10742;51.816;8.662;2022-12-07T01:12:02;8.50;97.90
21169;DHT22;10742;51.816;8.662;2022-12-07T01:15:25;8.50;97.90
21169;DHT22;10742;51.816;8.662;2022-12-07T01:18:48;8.50;97.90
21169;DHT22;10742;51.816;8.662;2022-12-07T01:22:09;8.60;97.90
21169;DHT22;10742;51.816;8.662;2022-12-07T01:25:31;8.60;97.90
21169;DHT22;10742;51.816;8.662;2022-12-07T01:28:52;8.60;97.90
21169;DHT22;10742;51.816;8.662;2022-12-07T01:32:16;8.60;97.90
21169;DHT22;10742;51.816;8.662;2022-12-07T01:35:37;8.60;97.90
21169;DHT22;10742;51.816;8.662;2022-12-07T01:39:00;8.60;97.90
21169;DHT22;10742;51.816;8.662;2022-12-07T01:42:23;8.70;98.00
21169;DHT22;10742;51.816;8.662;2022-12-07T01:45:44;8.70;97.90
21169;DHT22;10742;51.816;8.662;2022-12-07T01:49:09;8.70;98.00
21169;DHT22;10742;51.816;8.662;2022-12-07T01:52:33;8.70;98.00
21169;DHT22;10742;51.816;8.662;2022-12-07T01:55:56;8.70;98.00
21169;DHT22;10742;51.816;8.662;2022-12-07T01:59:21;8.80;98.00
21169;DHT22;10742;51.816;8.662;2022-12-07T02:02:57;8.80;98.00
21169;DHT22;10742;51.816;8.662;2022-12-07T02:06:24;8.80;98.10
21169;DHT22;10742;51.816;8.662;2022-12-07T02:09:46;8.80;98.00
21169;DHT22;10742;51.816;8.662;2022-12-07T02:13:21;8.80;98.00
21169;DHT22;10742;51.816;8.662;2022-12-07T02:25:04;8.90;98.10
21169;DHT22;10742;51.816;8.662;2022-12-07T02:28:37;8.90;98.10
21169;DHT22;10742;51.816;8.662;2022-12-07T02:32:18;8.90;98.00
21169;DHT22;10742;51.816;8.662;2022-12-07T02:36:21;8.90;98.10
21169;DHT22;10742;51.816;8.662;2022-12-07T02:39:48;8.90;98.10
21169;DHT22;10742;51.816;8.662;2022-12-07T02:43:26;9.00;98.00
21169;DHT22;10742;51.816;8.662;2022-12-07T02:46:57;9.00;98.00
21169;DHT22;10742;51.816;8.662;2022-12-07T02:50:21;9.00;98.00
21169;DHT22;10742;51.816;8.662;2022-12-07T02:53:43;9.00;97.90
21169;DHT22;10742;51.816;8.662;2022-12-07T02:57:30;9.00;97.90
21169;DHT22;10742;51.816;8.662;2022-12-07T03:01:11;9.00;98.00
21169;DHT22;10742;51.816;8.662;2022-12-07T03:11:50;9.10;98.00
21169;DHT22;10742;51.816;8.662;2022-12-07T03:15:23;9.10;97.90
21169;DHT22;10742;51.816;8.662;2022-12-07T03:19:03;9.10;97.90
21169;DHT22;10742;51.816;8.662;2022-12-07T03:22:28;9.00;97.90
21169;DHT22;10742;51.816;8.662;2022-12-07T03:25:54;9.00;97.90
21169;DHT22;10742;51.816;8.662;2022-12-07T03:29:24;9.00;97.90
21169;DHT22;10742;51.816;8.662;2022-12-07T03:33:08;9.00;97.90
21169;DHT22;10742;51.816;8.662;2022-12-07T03:36:35;9.10;97.90
21169;DHT22;10742;51.816;8.662;2022-12-07T03:40:29;9.00;97.80
21169;DHT22;10742;51.816;8.662;2022-12-07T03:43:54;9.00;97.90
21169;DHT22;10742;51.816;8.662;2022-12-07T03:55:05;9.10;97.70
21169;DHT22;10742;51.816;8.662;2022-12-07T03:58:24;9.00;97.70
21169;DHT22;10742;51.816;8.662;2022-12-07T04:01:55;9.00;97.60
21169;DHT22;10742;51.816;8.662;2022-12-07T04:05:17;9.00;97.60
21169;DHT22;10742;51.816;8.662;2022-12-07T04:08:38;9.00;97.60
21169;DHT22;10742;51.816;8.662;2022-12-07T04:12:00;9.00;97.60
21169;DHT22;10742;51.816;8.662;2022-12-07T04:15:22;9.00;97.60
21169;DHT22;10742;51.816;8.662;2022-12-07T04:18:43;9.00;97.60
21169;DHT22;10742;51.816;8.662;2022-12-07T04:22:05;9.00;97.60
21169;DHT22;10742;51.816;8.662;2022-12-07T04:25:27;9.00;97.50
21169;DHT22;10742;51.816;8.662;2022-12-07T04:28:49;9.00;97.40
21169;DHT22;10742;51.816;8.662;2022-12-07T04:32:10;9.00;97.40
21169;DHT22;10742;51.816;8.662;2022-12-07T04:35:32;8.90;97.30
21169;DHT22;10742;51.816;8.662;2022-12-07T04:38:55;8.90;97.30
21169;DHT22;10742;51.816;8.662;2022-12-07T04:42:16;8.90;97.30
21169;DHT22;10742;51.816;8.662;2022-12-07T04:45:37;8.90;97.40
21169;DHT22;10742;51.816;8.662;2022-12-07T04:48:59;8.80;97.40
21169;DHT22;10742;51.816;8.662;2022-12-07T04:52:21;8.80;97.40
21169;DHT22;10742;51.816;8.662;2022-12-07T04:55:43;8.80;97.30
21169;DHT22;10742;51.816;8.662;2022-12-07T04:59:05;8.80;97.30
21169;DHT22;10742;51.816;8.662;2022-12-07T05:02:26;8.80;97.30
21169;DHT22;10742;51.816;8.662;2022-12-07T05:05:47;8.80;97.30
21169;DHT22;10742;51.816;8.662;2022-12-07T05:09:09;8.70;97.30
21169;DHT22;10742;51.816;8.662;2022-12-07T05:12:30;8.80;97.40
21169;DHT22;10742;51.816;8.662;2022-12-07T05:15:51;8.70;97.30
21169;DHT22;10742;51.816;8.662;2022-12-07T05:19:13;8.70;97.30
21169;DHT22;10742;51.816;8.662;2022-12-07T05:22:34;8.70;97.30
21169;DHT22;10742;51.816;8.662;2022-12-07T05:25:55;8.70;97.30
21169;DHT22;10742;51.816;8.662;2022-12-07T05:29:17;8.70;97.30
21169;DHT22;10742;51.816;8.662;2022-12-07T05:32:39;8.70;97.30
21169;DHT22;10742;51.816;8.662;2022-12-07T05:36:00;8.60;97.30
21169;DHT22;10742;51.816;8.662;2022-12-07T05:39:26;8.60;97.30
21169;DHT22;10742;51.816;8.662;2022-12-07T05:42:47;8.60;97.30
21169;DHT22;10742;51.816;8.662;2022-12-07T05:46:09;8.60;97.30
21169;DHT22;10742;51.816;8.662;2022-12-07T05:49:30;8.60;97.20
21169;DHT22;10742;51.816;8.662;2022-12-07T05:52:52;8.60;97.20
21169;DHT22;10742;51.816;8.662;2022-12-07T05:56:13;8.60;97.20
21169;DHT22;10742;51.816;8.662;2022-12-07T05:59:35;8.60;97.20
21169;DHT22;10742;51.816;8.662;2022-12-07T06:02:56;8.60;97.30
21169;DHT22;10742;51.816;8.662;2022-12-07T06:06:19;8.60;97.20
21169;DHT22;10742;51.816;8.662;2022-12-07T06:09:40;8.60;97.20
21169;DHT22;10742;51.816;8.662;2022-12-07T06:13:02;8.60;97.20
21169;DHT22;10742;51.816;8.662;2022-12-07T06:16:23;8.60;97.10
21169;DHT22;10742;51.816;8.662;2022-12-07T06:19:44;8.60;97.10
21169;DHT22;10742;51.816;8.662;2022-12-07T06:23:06;8.50;97.10
21169;DHT22;10742;51.816;8.662;2022-12-07T06:26:27;8.50;97.10
21169;DHT22;10742;51.816;8.662;2022-12-07T06:29:49;8.50;97.10
21169;DHT22;10742;51.816;8.662;2022-12-07T06:33:10;8.50;97.20
21169;DHT22;10742;51.816;8.662;2022-12-07T06:36:32;8.50;97.10
21169;DHT22;10742;51.816;8.662;2022-12-07T06:39:53;8.50;97.10
21169;DHT22;10742;51.816;8.662;2022-12-07T06:43:14;8.50;97.10
21169;DHT22;10742;51.816;8.662;2022-12-07T06:46:36;8.50;97.10
21169;DHT22;10742;51.816;8.662;2022-12-07T06:49:57;8.50;97.10
21169;DHT22;10742;51.816;8.662;2022-12-07T06:53:19;8.50;97.10
21169;DHT22;10742;51.816;8.662;2022-12-07T06:56:40;8.50;97.10
21169;DHT22;10742;51.816;8.662;2022-12-07T07:00:03;8.50;97.10
21169;DHT22;10742;51.816;8.662;2022-12-07T07:03:25;8.50;97.10
21169;DHT22;10742;51.816;8.662;2022-12-07T07:06:46;8.50;97.00
21169;DHT22;10742;51.816;8.662;2022-12-07T07:10:08;8.40;97.00
21169;DHT22;10742;51.816;8.662;2022-12-07T07:13:30;8.40;97.00
21169;DHT22;10742;51.816;8.662;2022-12-07T07:16:52;8.40;97.00
21169;DHT22;10742;51.816;8.662;2022-12-07T07:20:13;8.40;97.40
21169;DHT22;10742;51.816;8.662;2022-12-07T07:23:35;8.40;97.00
21169;DHT22;10742;51.816;8.662;2022-12-07T07:26:56;8.40;97.00
21169;DHT22;10742;51.816;8.662;2022-12-07T07:30:18;8.40;97.00
21169;DHT22;10742;51.816;8.662;2022-12-07T07:33:40;8.40;97.00
21169;DHT22;10742;51.816;8.662;2022-12-07T07:37:01;8.40;97.00
21169;DHT22;10742;51.816;8.662;2022-12-07T07:40:23;8.30;97.00
21169;DHT22;10742;51.816;8.662;2022-12-07T07:43:45;8.40;97.10
21169;DHT22;10742;51.816;8.662;2022-12-07T07:47:06;8.40;97.10
21169;DHT22;10742;51.816;8.662;2022-12-07T07:50:28;8.40;97.10
21169;DHT22;10742;51.816;8.662;2022-12-07T07:53:49;8.40;97.10
21169;DHT22;10742;51.816;8.662;2022-12-07T07:57:10;8.40;97.40
21169;DHT22;10742;51.816;8.662;2022-12-07T08:00:32;8.40;97.00
21169;DHT22;10742;51.816;8.662;2022-12-07T08:03:53;8.40;97.00
21169;DHT22;10742;51.816;8.662;2022-12-07T08:07:15;8.40;97.00
21169;DHT22;10742;51.816;8.662;2022-12-07T08:10:38;8.40;97.00
21169;DHT22;10742;51.816;8.662;2022-12-07T08:13:59;8.40;96.90
21169;DHT22;10742;51.816;8.662;2022-12-07T08:17:21;8.40;96.90
21169;DHT22;10742;51.816;8.662;2022-12-07T08:20:43;8.40;96.90
21169;DHT22;10742;51.816;8.662;2022-12-07T08:24:05;8.40;96.90
21169;DHT22;10742;51.816;8.662;2022-12-07T08:27:27;8.40;96.80
21169;DHT22;10742;51.816;8.662;2022-12-07T08:30:49;8.40;96.80
21169;DHT22;10742;51.816;8.662;2022-12-07T08:34:12;8.40;96.80
21169;DHT22;10742;51.816;8.662;2022-12-07T08:37:33;8.40;96.80
21169;DHT22;10742;51.816;8.662;2022-12-07T08:40:58;8.40;96.80
21169;DHT22;10742;51.816;8.662;2022-12-07T08:44:19;8.40;96.90
21169;DHT22;10742;51.816;8.662;2022-12-07T08:47:48;8.40;96.80
21169;DHT22;10742;51.816;8.662;2022-12-07T08:51:12;8.40;96.80
21169;DHT22;10742;51.816;8.662;2022-12-07T08:54:35;8.40;96.80
21169;DHT22;10742;51.816;8.662;2022-12-07T08:57:59;8.50;96.80
21169;DHT22;10742;51.816;8.662;2022-12-07T09:01:20;8.50;96.80
21169;DHT22;10742;51.816;8.662;2022-12-07T09:04:42;8.50;96.90
21169;DHT22;10742;51.816;8.662;2022-12-07T09:08:04;8.50;96.90
21169;DHT22;10742;51.816;8.662;2022-12-07T09:11:26;8.50;96.80
21169;DHT22;10742;51.816;8.662;2022-12-07T09:14:48;8.50;96.80
21169;DHT22;10742;51.816;8.662;2022-12-07T09:18:10;8.50;96.80
21169;DHT22;10742;51.816;8.662;2022-12-07T09:21:31;8.50;96.80
21169;DHT22;10742;51.816;8.662;2022-12-07T09:24:52;8.50;96.80
21169;DHT22;10742;51.816;8.662;2022-12-07T09:28:14;8.50;96.80
21169;DHT22;10742;51.816;8.662;2022-12-07T09:31:36;8.60;96.70
21169;DHT22;10742;51.816;8.662;2022-12-07T09:34:58;8.60;96.80
21169;DHT22;10742;51.816;8.662;2022-12-07T09:38:20;8.60;96.80
21169;DHT22;10742;51.816;8.662;2022-12-07T09:41:43;8.60;96.90
21169;DHT22;10742;51.816;8.662;2022-12-07T09:45:10;8.60;96.90
21169;DHT22;10742;51.816;8.662;2022-12-07T09:48:36;8.60;96.90
21169;DHT22;10742;51.816;8.662;2022-12-07T09:52:03;8.70;97.00
21169;DHT22;10742;51.816;8.662;2022-12-07T09:55:38;8.70;97.00
21169;DHT22;10742;51.816;8.662;2022-12-07T09:59:02;8.80;97.00
21169;DHT22;10742;51.816;8.662;2022-12-07T10:02:35;8.80;97.00
21169;DHT22;10742;51.816;8.662;2022-12-07T10:05:58;8.90;96.90
21169;DHT22;10742;51.816;8.662;2022-12-07T10:09:21;8.90;97.00
21169;DHT22;10742;51.816;8.662;2022-12-07T10:19:45;9.00;96.70
21169;DHT22;10742;51.816;8.662;2022-12-07T10:23:15;9.00;96.80
21169;DHT22;10742;51.816;8.662;2022-12-07T10:26:40;9.10;96.80
21169;DHT22;10742;51.816;8.662;2022-12-07T10:30:08;9.10;96.80
21169;DHT22;10742;51.816;8.662;2022-12-07T10:33:58;9.20;96.70
21169;DHT22;10742;51.816;8.662;2022-12-07T10:37:21;9.20;96.60
21169;DHT22;10742;51.816;8.662;2022-12-07T10:40:47;9.20;96.60
21169;DHT22;10742;51.816;8.662;2022-12-07T10:44:27;9.20;96.60
21169;DHT22;10742;51.816;8.662;2022-12-07T10:48:12;9.20;96.50
21169;DHT22;10742;51.816;8.662;2022-12-07T10:59:19;9.30;96.60
21169;DHT22;10742;51.816;8.662;2022-12-07T11:06:39;9.40;96.70
21169;DHT22;10742;51.816;8.662;2022-12-07T11:10:43;9.40;96.70
21169;DHT22;10742;51.816;8.662;2022-12-07T11:14:33;9.40;96.50
21169;DHT22;10742;51.816;8.662;2022-12-07T11:18:11;9.50;96.50
21169;DHT22;10742;51.816;8.662;2022-12-07T11:21:55;9.60;96.70
21169;DHT22;10742;51.816;8.662;2022-12-07T11:25:37;9.60;96.70
21169;DHT22;10742;51.816;8.662;2022-12-07T11:36:45;9.70;96.40
21169;DHT22;10742;51.816;8.662;2022-12-07T11:43:54;9.80;96.30
21169;DHT22;10742;51.816;8.662;2022-12-07T11:47:25;9.80;96.10
21169;DHT22;10742;51.816;8.662;2022-12-07T11:50:52;9.80;96.10
21169;DHT22;10742;51.816;8.662;2022-12-07T11:54:19;9.80;96.00
21169;DHT22;10742;51.816;8.662;2022-12-07T11:57:46;9.80;95.90
21169;DHT22;10742;51.816;8.662;2022-12-07T12:01:15;9.80;95.90
21169;DHT22;10742;51.816;8.662;2022-12-07T12:16:52;9.80;96.10
21169;DHT22;10742;51.816;8.662;2022-12-07T12:24:15;9.80;96.00
21169;DHT22;10742;51.816;8.662;2022-12-07T12:27:39;9.90;95.90
21169;DHT22;10742;51.816;8.662;2022-12-07T12:31:14;9.90;96.00
21169;DHT22;10742;51.816;8.662;2022-12-07T12:34:42;9.90;95.90
21169;DHT22;10742;51.816;8.662;2022-12-07T12:38:32;10.00;95.90
21169;DHT22;10742;51.816;8.662;2022-12-07T12:41:57;10.00;95.80
21169;DHT22;10742;51.816;8.662;2022-12-07T12:45:27;10.10;95.90
21169;DHT22;10742;51.816;8.662;2022-12-07T12:48:49;10.10;95.80
21169;DHT22;10742;51.816;8.662;2022-12-07T12:59:23;10.20;95.60
21169;DHT22;10742;51.816;8.662;2022-12-07T13:02:52;10.20;95.40
21169;DHT22;10742;51.816;8.662;2022-12-07T13:09:46;10.20;95.40
21169;DHT22;10742;51.816;8.662;2022-12-07T13:16:38;10.20;95.40
21169;DHT22;10742;51.816;8.662;2022-12-07T13:20:05;10.20;95.40
21169;DHT22;10742;51.816;8.662;2022-12-07T13:26:55;10.20;95.40
21169;DHT22;10742;51.816;8.662;2022-12-07T13:30:20;10.20;95.30
21169;DHT22;10742;51.816;8.662;2022-12-07T13:33:44;10.10;95.30
21169;DHT22;10742;51.816;8.662;2022-12-07T13:40:39;10.10;95.10
21169;DHT22;10742;51.816;8.662;2022-12-07T13:44:10;10.10;95.20
21169;DHT22;10742;51.816;8.662;2022-12-07T13:47:56;10.10;95.00
21169;DHT22;10742;51.816;8.662;2022-12-07T13:51:24;10.10;94.90
21169;DHT22;10742;51.816;8.662;2022-12-07T13:54:49;10.10;95.10
21169;DHT22;10742;51.816;8.662;2022-12-07T13:58:16;10.10;95.20
21169;DHT22;10742;51.816;8.662;2022-12-07T14:01:37;10.10;95.30
21169;DHT22;10742;51.816;8.662;2022-12-07T14:05:23;10.10;95.20
21169;DHT22;10742;51.816;8.662;2022-12-07T14:08:46;10.10;95.10
21169;DHT22;10742;51.816;8.662;2022-12-07T14:12:07;10.10;95.20
21169;DHT22;10742;51.816;8.662;2022-12-07T14:15:31;10.10;95.20
21169;DHT22;10742;51.816;8.662;2022-12-07T14:18:53;10.10;95.20
21169;DHT22;10742;51.816;8.662;2022-12-07T14:22:25;10.10;95.20
21169;DHT22;10742;51.816;8.662;2022-12-07T14:25:47;10.10;95.00
21169;DHT22;10742;51.816;8.662;2022-12-07T14:29:43;10.10;95.10
21169;DHT22;10742;51.816;8.662;2022-12-07T14:33:05;10.10;94.80
21169;DHT22;10742;51.816;8.662;2022-12-07T14:36:29;10.10;95.10
21169;DHT22;10742;51.816;8.662;2022-12-07T14:39:50;10.20;95.00
21169;DHT22;10742;51.816;8.662;2022-12-07T14:43:14;10.10;95.10
21169;DHT22;10742;51.816;8.662;2022-12-07T14:46:36;10.10;95.00
21169;DHT22;10742;51.816;8.662;2022-12-07T14:49:58;10.10;94.90
21169;DHT22;10742;51.816;8.662;2022-12-07T14:53:27;10.10;94.90
21169;DHT22;10742;51.816;8.662;2022-12-07T14:56:51;10.00;94.90
21169;DHT22;10742;51.816;8.662;2022-12-07T15:00:16;10.00;95.00
21169;DHT22;10742;51.816;8.662;2022-12-07T15:03:38;10.00;94.90
21169;DHT22;10742;51.816;8.662;2022-12-07T15:07:02;9.90;94.90
21169;DHT22;10742;51.816;8.662;2022-12-07T15:10:27;9.90;94.90
21169;DHT22;10742;51.816;8.662;2022-12-07T15:13:52;9.90;94.80
21169;DHT22;10742;51.816;8.662;2022-12-07T15:17:29;9.80;94.80
21169;DHT22;10742;51.816;8.662;2022-12-07T15:20:52;9.80;94.70
21169;DHT22;10742;51.816;8.662;2022-12-07T15:23:54;9.70;94.70
21169;DHT22;10742;51.816;8.662;2022-12-07T15:26:57;9.70;94.70
21169;DHT22;10742;51.816;8.662;2022-12-07T15:29:59;9.60;94.70
21169;DHT22;10742;51.816;8.662;2022-12-07T15:33:02;9.50;94.70
21169;DHT22;10742;51.816;8.662;2022-12-07T15:36:04;9.50;94.90
21169;DHT22;10742;51.816;8.662;2022-12-07T15:39:08;9.50;94.80
21169;DHT22;10742;51.816;8.662;2022-12-07T15:42:15;9.50;94.90
21169;DHT22;10742;51.816;8.662;2022-12-07T15:45:18;9.40;94.90
21169;DHT22;10742;51.816;8.662;2022-12-07T15:48:20;9.40;94.90
21169;DHT22;10742;51.816;8.662;2022-12-07T15:51:30;9.40;95.00
21169;DHT22;10742;51.816;8.662;2022-12-07T15:54:33;9.40;95.00
21169;DHT22;10742;51.816;8.662;2022-12-07T15:57:37;9.30;95.00
21169;DHT22;10742;51.816;8.662;2022-12-07T16:00:39;9.30;95.00
21169;DHT22;10742;51.816;8.662;2022-12-07T16:03:43;9.30;95.10
21169;DHT22;10742;51.816;8.662;2022-12-07T16:06:46;9.30;95.10
21169;DHT22;10742;51.816;8.662;2022-12-07T16:09:49;9.30;95.20
21169;DHT22;10742;51.816;8.662;2022-12-07T16:12:51;9.30;95.20
21169;DHT22;10742;51.816;8.662;2022-12-07T16:15:55;9.20;95.20
21169;DHT22;10742;51.816;8.662;2022-12-07T16:18:57;9.20;95.20
21169;DHT22;10742;51.816;8.662;2022-12-07T16:22:00;9.20;95.20
21169;DHT22;10742;51.816;8.662;2022-12-07T16:25:03;9.20;95.20
21169;DHT22;10742;51.816;8.662;2022-12-07T16:28:05;9.20;95.20
21169;DHT22;10742;51.816;8.662;2022-12-07T16:31:10;9.20;95.20
21169;DHT22;10742;51.816;8.662;2022-12-07T16:34:19;9.10;95.20
21169;DHT22;10742;51.816;8.662;2022-12-07T16:37:21;9.10;95.20
21169;DHT22;10742;51.816;8.662;2022-12-07T16:40:23;9.10;95.10
21169;DHT22;10742;51.816;8.662;2022-12-07T16:43:26;9.10;95.10
21169;DHT22;10742;51.816;8.662;2022-12-07T16:46:28;9.00;95.10
21169;DHT22;10742;51.816;8.662;2022-12-07T16:49:30;9.00;95.10
21169;DHT22;10742;51.816;8.662;2022-12-07T16:52:33;9.00;95.10
21169;DHT22;10742;51.816;8.662;2022-12-07T16:55:43;8.90;95.00
21169;DHT22;10742;51.816;8.662;2022-12-07T16:58:46;8.90;95.10
21169;DHT22;10742;51.816;8.662;2022-12-07T17:01:50;8.90;95.10
21169;DHT22;10742;51.816;8.662;2022-12-07T17:04:54;8.90;95.10
21169;DHT22;10742;51.816;8.662;2022-12-07T17:07:56;8.90;95.10
21169;DHT22;10742;51.816;8.662;2022-12-07T17:10:59;8.80;95.10
21169;DHT22;10742;51.816;8.662;2022-12-07T17:14:01;8.80;95.10
21169;DHT22;10742;51.816;8.662;2022-12-07T17:17:23;8.80;95.10
21169;DHT22;10742;51.816;8.662;2022-12-07T17:20:27;8.70;95.10
21169;DHT22;10742;51.816;8.662;2022-12-07T17:23:29;8.70;95.10
21169;DHT22;10742;51.816;8.662;2022-12-07T17:26:33;8.70;95.20
21169;DHT22;10742;51.816;8.662;2022-12-07T17:29:37;8.60;95.10
21169;DHT22;10742;51.816;8.662;2022-12-07T17:32:39;8.60;95.20
21169;DHT22;10742;51.816;8.662;2022-12-07T17:35:42;8.60;95.20
21169;DHT22;10742;51.816;8.662;2022-12-07T17:38:45;8.60;95.20
21169;DHT22;10742;51.816;8.662;2022-12-07T17:41:47;8.50;95.20
21169;DHT22;10742;51.816;8.662;2022-12-07T17:45:10;8.60;95.20
21169;DHT22;10742;51.816;8.662;2022-12-07T17:48:13;8.50;95.30
21169;DHT22;10742;51.816;8.662;2022-12-07T17:51:15;8.50;95.30
21169;DHT22;10742;51.816;8.662;2022-12-07T17:54:36;8.50;95.30
21169;DHT22;10742;51.816;8.662;2022-12-07T17:57:39;8.50;95.30
21169;DHT22;10742;51.816;8.662;2022-12-07T18:01:09;8.50;95.30
21169;DHT22;10742;51.816;8.662;2022-12-07T18:04:12;8.50;95.30
21169;DHT22;10742;51.816;8.662;2022-12-07T18:07:15;8.40;95.30
21169;DHT22;10742;51.816;8.662;2022-12-07T18:10:17;8.50;95.40
21169;DHT22;10742;51.816;8.662;2022-12-07T18:13:20;8.40;95.40
21169;DHT22;10742;51.816;8.662;2022-12-07T18:16:37;8.40;95.40
21169;DHT22;10742;51.816;8.662;2022-12-07T18:19:39;8.40;95.50
21169;DHT22;10742;51.816;8.662;2022-12-07T18:22:42;8.40;95.50
21169;DHT22;10742;51.816;8.662;2022-12-07T18:25:51;8.40;95.50
21169;DHT22;10742;51.816;8.662;2022-12-07T18:28:54;8.40;95.50
21169;DHT22;10742;51.816;8.662;2022-12-07T18:31:56;8.40;95.50
21169;DHT22;10742;51.816;8.662;2022-12-07T18:34:59;8.40;95.60
21169;DHT22;10742;51.816;8.662;2022-12-07T18:38:02;8.40;95.60
21169;DHT22;10742;51.816;8.662;2022-12-07T18:41:10;8.50;95.60
21169;DHT22;10742;51.816;8.662;2022-12-07T18:44:14;8.40;95.60
21169;DHT22;10742;51.816;8.662;2022-12-07T18:47:17;8.40;95.60
21169;DHT22;10742;51.816;8.662;2022-12-07T18:50:20;8.50;95.70
21169;DHT22;10742;51.816;8.662;2022-12-07T18:53:23;8.40;95.70
21169;DHT22;10742;51.816;8.662;2022-12-07T18:56:27;8.40;95.70
21169;DHT22;10742;51.816;8.662;2022-12-07T18:59:29;8.40;95.70
21169;DHT22;10742;51.816;8.662;2022-12-07T19:02:53;8.40;95.70
21169;DHT22;10742;51.816;8.662;2022-12-07T19:05:55;8.40;95.80
21169;DHT22;10742;51.816;8.662;2022-12-07T19:08:59;8.40;95.80
21169;DHT22;10742;51.816;8.662;2022-12-07T19:12:01;8.40;95.80
21169;DHT22;10742;51.816;8.662;2022-12-07T19:15:08;8.40;95.80
21169;DHT22;10742;51.816;8.662;2022-12-07T19:18:10;8.40;95.90
21169;DHT22;10742;51.816;8.662;2022-12-07T19:21:13;8.40;95.90
21169;DHT22;10742;51.816;8.662;2022-12-07T19:24:16;8.40;95.90
21169;DHT22;10742;51.816;8.662;2022-12-07T19:27:23;8.40;95.90
21169;DHT22;10742;51.816;8.662;2022-12-07T19:30:25;8.40;96.20
21169;DHT22;10742;51.816;8.662;2022-12-07T19:33:30;8.40;95.90
21169;DHT22;10742;51.816;8.662;2022-12-07T19:36:32;8.40;95.90
21169;DHT22;10742;51.816;8.662;2022-12-07T19:39:34;8.40;95.90
21169;DHT22;10742;51.816;8.662;2022-12-07T19:42:37;8.40;95.90
21169;DHT22;10742;51.816;8.662;2022-12-07T19:45:39;8.40;96.20
21169;DHT22;10742;51.816;8.662;2022-12-07T19:48:41;8.40;95.90
21169;DHT22;10742;51.816;8.662;2022-12-07T19:51:48;8.40;95.90
21169;DHT22;10742;51.816;8.662;2022-12-07T19:54:50;8.40;95.90
21169;DHT22;10742;51.816;8.662;2022-12-07T19:57:53;8.40;95.90
21169;DHT22;10742;51.816;8.662;2022-12-07T20:01:04;8.40;95.90
21169;DHT22;10742;51.816;8.662;2022-12-07T20:04:10;8.40;95.90
21169;DHT22;10742;51.816;8.662;2022-12-07T20:07:12;8.40;95.90
21169;DHT22;10742;51.816;8.662;2022-12-07T20:10:15;8.40;95.90
21169;DHT22;10742;51.816;8.662;2022-12-07T20:13:17;8.40;95.90
21169;DHT22;10742;51.816;8.662;2022-12-07T20:16:35;8.50;96.00
21169;DHT22;10742;51.816;8.662;2022-12-07T20:19:38;8.50;95.90
21169;DHT22;10742;51.816;8.662;2022-12-07T20:22:41;8.40;95.90
21169;DHT22;10742;51.816;8.662;2022-12-07T20:25:43;8.40;95.90
21169;DHT22;10742;51.816;8.662;2022-12-07T20:28:46;8.40;95.90
21169;DHT22;10742;51.816;8.662;2022-12-07T20:31:49;8.40;95.90
21169;DHT22;10742;51.816;8.662;2022-12-07T20:34:51;8.40;95.80
21169;DHT22;10742;51.816;8.662;2022-12-07T20:37:54;8.40;95.90
21169;DHT22;10742;51.816;8.662;2022-12-07T20:41:03;8.40;95.80
21169;DHT22;10742;51.816;8.662;2022-12-07T20:44:06;8.40;95.80
21169;DHT22;10742;51.816;8.662;2022-12-07T20:47:08;8.40;95.80
21169;DHT22;10742;51.816;8.662;2022-12-07T20:50:10;8.40;95.80
21169;DHT22;10742;51.816;8.662;2022-12-07T20:53:13;8.40;95.80
21169;DHT22;10742;51.816;8.662;2022-12-07T20:56:26;8.40;95.80
21169;DHT22;10742;51.816;8.662;2022-12-07T20:59:29;8.40;95.80
21169;DHT22;10742;51.816;8.662;2022-12-07T21:02:33;8.40;95.80
21169;DHT22;10742;51.816;8.662;2022-12-07T21:05:35;8.30;95.80
21169;DHT22;10742;51.816;8.662;2022-12-07T21:08:38;8.30;96.20
21169;DHT22;10742;51.816;8.662;2022-12-07T21:11:40;8.30;95.80
21169;DHT22;10742;51.816;8.662;2022-12-07T21:14:43;8.30;95.90
21169;DHT22;10742;51.816;8.662;2022-12-07T21:17:45;8.30;95.90
21169;DHT22;10742;51.816;8.662;2022-12-07T21:20:48;8.30;95.80
21169;DHT22;10742;51.816;8.662;2022-12-07T21:23:53;8.30;96.20
21169;DHT22;10742;51.816;8.662;2022-12-07T21:26:59;8.30;95.80
21169;DHT22;10742;51.816;8.662;2022-12-07T21:30:01;8.30;95.80
21169;DHT22;10742;51.816;8.662;2022-12-07T21:33:03;8.30;95.90
21169;DHT22;10742;51.816;8.662;2022-12-07T21:36:07;8.30;95.90
21169;DHT22;10742;51.816;8.662;2022-12-07T21:39:11;8.30;95.80
21169;DHT22;10742;51.816;8.662;2022-12-07T21:42:14;8.30;95.90
21169;DHT22;10742;51.816;8.662;2022-12-07T21:45:17;8.30;95.90
21169;DHT22;10742;51.816;8.662;2022-12-07T21:48:20;8.30;95.90
21169;DHT22;10742;51.816;8.662;2022-12-07T21:51:24;8.30;95.90
21169;DHT22;10742;51.816;8.662;2022-12-07T21:54:30;8.30;95.90
21169;DHT22;10742;51.816;8.662;2022-12-07T21:57:32;8.30;95.90
21169;DHT22;10742;51.816;8.662;2022-12-07T22:00:35;8.30;95.90
21169;DHT22;10742;51.816;8.662;2022-12-07T22:03:38;8.20;95.90
21169;DHT22;10742;51.816;8.662;2022-12-07T22:06:42;8.30;96.10
21169;DHT22;10742;51.816;8.662;2022-12-07T22:09:45;8.30;96.00
21169;DHT22;10742;51.816;8.662;2022-12-07T22:12:48;8.30;96.00
21169;DHT22;10742;51.816;8.662;2022-12-07T22:15:50;8.20;96.00
21169;DHT22;10742;51.816;8.662;2022-12-07T22:18:53;8.30;96.00
21169;DHT22;10742;51.816;8.662;2022-12-07T22:21:56;8.30;96.00
21169;DHT22;10742;51.816;8.662;2022-12-07T22:24:59;8.20;96.00
21169;DHT22;10742;51.816;8.662;2022-12-07T22:28:01;8.20;96.00
21169;DHT22;10742;51.816;8.662;2022-12-07T22:31:05;8.30;96.10
21169;DHT22;10742;51.816;8.662;2022-12-07T22:34:14;8.20;96.00
21169;DHT22;10742;51.816;8.662;2022-12-07T22:37:16;8.30;96.00